createdAt,value
2023-08-21T00:00:02.952Z,87
2023-08-21T00:01:03.555Z,87.1
2023-08-21T00:02:03.860Z,87.2
2023-08-21T00:03:03.421Z,87.2
2023-08-21T00:04:03.819Z,87.3
2023-08-21T00:05:01.587Z,87.4
2023-08-21T00:06:02.041Z,87.4
2023-08-21T00:07:01.533Z,87.4
2023-08-21T00:08:02.021Z,87.4
2023-08-21T00:09:03.129Z,87.3
2023-08-21T00:10:03.607Z,87.3
2023-08-21T00:11:01.361Z,87.3
2023-08-21T00:12:01.836Z,87.3
2023-08-21T00:13:01.274Z,87.3
2023-08-21T00:14:01.726Z,87.3
2023-08-21T00:15:02.187Z,87.2
2023-08-21T00:16:01.697Z,87.2
2023-08-21T00:17:03.757Z,87.2
2023-08-21T00:18:01.676Z,87.1
2023-08-21T00:19:02.083Z,86.9
2023-08-21T00:20:01.524Z,87
2023-08-21T00:21:01.966Z,87
2023-08-21T00:22:01.429Z,87.1
2023-08-21T00:23:03.571Z,87
2023-08-21T00:24:01.291Z,87
2023-08-21T00:25:03.447Z,87
2023-08-21T00:27:01.738Z,87.2
2023-08-21T00:28:02.163Z,87.3
2023-08-21T00:29:01.664Z,87.2
2023-08-21T00:30:02.094Z,87.2
2023-08-21T00:31:03.248Z,87.2
2023-08-21T00:32:02.044Z,87.2
2023-08-21T00:33:03.178Z,87.2
2023-08-21T00:34:01.923Z,87.1
2023-08-21T00:35:01.378Z,87.2
2023-08-21T00:36:03.496Z,87.3
2023-08-21T00:37:01.304Z,87.4
2023-08-21T00:38:03.402Z,87.4
2023-08-21T00:39:03.854Z,87.4
2023-08-21T00:40:01.652Z,87.4
2023-08-21T00:43:43.736Z,87.5
2023-08-21T00:44:01.578Z,87.4
2023-08-21T00:45:01.973Z,87.5
2023-08-21T00:46:01.490Z,87.5
2023-08-21T00:47:01.882Z,87.5
2023-08-21T00:48:02.968Z,87.4
2023-08-21T00:49:03.538Z,87.3
2023-08-21T00:50:01.274Z,87.3
2023-08-21T00:51:01.726Z,87.3
2023-08-21T00:52:02.211Z,87.4
2023-08-21T00:53:03.270Z,87.4
2023-08-21T00:54:02.064Z,87.5
2023-08-21T00:55:03.198Z,87.5
2023-08-21T00:56:02.005Z,87.5
2023-08-21T00:57:01.458Z,87.5
2023-08-21T00:58:03.596Z,87.5
2023-08-21T00:59:03.069Z,87.4
2023-08-21T01:00:03.477Z,87.4
2023-08-21T01:01:01.269Z,87.4
2023-08-21T01:02:01.695Z,87.5
2023-08-21T01:03:02.272Z,87.5
2023-08-21T01:04:03.282Z,87.5
2023-08-21T01:05:03.764Z,87.7
2023-08-21T01:06:03.211Z,87.7
2023-08-21T01:07:03.692Z,87.7
2023-08-21T01:08:03.110Z,87.5
2023-08-21T01:09:03.629Z,87.5
2023-08-21T01:10:01.375Z,87.5
2023-08-21T01:11:03.543Z,87.6
2023-08-21T01:12:02.950Z,87.6
2023-08-21T01:13:01.750Z,87.8
2023-08-21T01:14:02.230Z,87.8
2023-08-21T01:15:03.314Z,87.9
2023-08-21T01:16:03.781Z,88
2023-08-21T01:17:01.595Z,88
2023-08-21T01:18:02.097Z,88
2023-08-21T01:19:03.119Z,88
2023-08-21T01:20:01.962Z,88
2023-08-21T01:21:03.072Z,87.9
2023-08-21T01:22:01.900Z,87.9
2023-08-21T01:23:02.978Z,87.9
2023-08-21T01:24:03.479Z,88
2023-08-21T01:25:01.275Z,88
2023-08-21T01:26:03.236Z,88
2023-08-21T01:27:02.212Z,87.9
2023-08-21T01:28:01.688Z,87.9
2023-08-21T01:29:03.808Z,87.8
2023-08-21T01:30:01.594Z,87.8
2023-08-21T01:31:02.022Z,87.8
2023-08-21T01:32:01.571Z,87.8
2023-08-21T01:33:03.637Z,87.6
2023-08-21T01:34:01.420Z,87.8
2023-08-21T01:35:01.918Z,87.7
2023-08-21T01:36:01.363Z,87.6
2023-08-21T01:37:01.857Z,87.6
2023-08-21T01:38:02.920Z,87.6
2023-08-21T01:39:03.434Z,87.7
2023-08-21T01:40:02.865Z,87.8
2023-08-21T01:41:04.011Z,87.9
2023-08-21T01:42:03.054Z,87.9
2023-08-21T01:43:03.820Z,87.8
2023-08-21T01:44:01.575Z,87.8
2023-08-21T01:45:02.149Z,87.8
2023-08-21T01:46:01.614Z,87.8
2023-08-21T01:47:03.686Z,87.8
2023-08-21T01:48:03.190Z,87.8
2023-08-21T01:49:02.070Z,87.9
2023-08-21T01:50:01.420Z,87.8
2023-08-21T01:51:03.704Z,87.8
2023-08-21T01:52:01.386Z,87.8
2023-08-21T01:53:03.468Z,87.8
2023-08-21T01:54:01.262Z,87.9
2023-08-21T01:55:01.749Z,87.9
2023-08-21T01:56:04.331Z,88
2023-08-21T01:57:01.676Z,87.9
2023-08-21T01:58:03.739Z,87.9
2023-08-21T01:59:01.617Z,87.8
2023-08-21T02:00:02.032Z,87.9
2023-08-21T02:01:03.168Z,88
2023-08-21T02:02:03.638Z,88
2023-08-21T02:03:03.232Z,87.9
2023-08-21T02:04:01.860Z,87.8
2023-08-21T02:05:02.952Z,87.8
2023-08-21T02:06:01.728Z,87.8
2023-08-21T02:07:02.253Z,87.9
2023-08-21T02:08:01.732Z,88
2023-08-21T02:09:02.205Z,88.1
2023-08-21T02:10:03.267Z,88.2
2023-08-21T02:11:03.740Z,88.1
2023-08-21T02:12:03.118Z,88.1
2023-08-21T02:13:03.850Z,88.2
2023-08-21T02:14:03.100Z,88.2
2023-08-21T02:15:03.561Z,88.2
2023-08-21T02:16:01.428Z,88.1
2023-08-21T02:17:01.849Z,88.1
2023-08-21T02:18:01.300Z,88.1
2023-08-21T02:19:01.782Z,88
2023-08-21T02:20:02.211Z,88
2023-08-21T02:21:02.328Z,88.1
2023-08-21T02:22:03.753Z,88.1
2023-08-21T02:23:01.550Z,88.2
2023-08-21T02:24:03.731Z,88.2
2023-08-21T02:25:03.131Z,88.3
2023-08-21T02:26:03.568Z,88.3
2023-08-21T02:27:03.015Z,88.1
2023-08-21T02:28:03.432Z,88
2023-08-21T02:29:01.299Z,88.1
2023-08-21T02:30:01.752Z,88.1
2023-08-21T02:31:03.911Z,88.1
2023-08-21T02:32:01.682Z,88.2
2023-08-21T02:33:02.203Z,88.1
2023-08-21T02:34:01.620Z,88.1
2023-08-21T02:35:03.769Z,88
2023-08-21T02:36:01.567Z,88.1
2023-08-21T02:37:02.044Z,88.1
2023-08-21T02:38:03.152Z,88.2
2023-08-21T02:39:01.982Z,88.1
2023-08-21T02:40:01.461Z,88.1
2023-08-21T02:41:03.559Z,88.1
2023-08-21T02:42:02.934Z,88
2023-08-21T02:43:01.788Z,87.6
2023-08-21T02:45:01.736Z,87.8
2023-08-21T02:46:02.176Z,88
2023-08-21T02:47:03.304Z,88
2023-08-21T02:48:02.085Z,88.1
2023-08-21T02:49:03.187Z,88.2
2023-08-21T02:50:01.998Z,88.4
2023-08-21T02:51:03.540Z,88.3
2023-08-21T02:52:01.922Z,88.3
2023-08-21T02:53:03.058Z,88.3
2023-08-21T02:54:01.812Z,88.4
2023-08-21T02:55:01.330Z,88.4
2023-08-21T02:56:01.777Z,88.4
2023-08-21T02:57:02.244Z,88.4
2023-08-21T02:58:01.721Z,88.4
2023-08-21T02:59:03.841Z,88.2
2023-08-21T03:00:03.210Z,88.2
2023-08-21T03:01:02.134Z,88.2
2023-08-21T03:02:02.294Z,88.3
2023-08-21T03:03:03.673Z,88.5
2023-08-21T03:04:01.436Z,88.5
2023-08-21T03:05:03.570Z,88.5
2023-08-21T03:06:01.327Z,88.5
2023-08-21T03:07:01.812Z,88.4
2023-08-21T03:08:02.906Z,88.2
2023-08-21T03:09:01.730Z,88.2
2023-08-21T03:10:02.214Z,88.4
2023-08-21T03:11:01.691Z,88.4
2023-08-21T03:12:02.119Z,88.5
2023-08-21T03:13:03.228Z,88.4
2023-08-21T03:14:01.984Z,88.4
2023-08-21T03:15:03.105Z,88.5
2023-08-21T03:16:01.888Z,88.7
2023-08-21T03:17:03.020Z,88.7
2023-08-21T03:18:01.822Z,88.6
2023-08-21T03:19:03.931Z,88.7
2023-08-21T03:20:01.702Z,88.6
2023-08-21T03:21:02.187Z,88.6
2023-08-21T03:22:01.640Z,88.6
2023-08-21T03:23:03.734Z,88.6
2023-08-21T03:24:05.049Z,88.5
2023-08-21T03:25:03.743Z,88.6
2023-08-21T03:26:01.436Z,88.6
2023-08-21T03:27:03.572Z,88.6
2023-08-21T03:28:01.353Z,88.6
2023-08-21T03:29:03.471Z,88.6
2023-08-21T03:30:01.270Z,88.5
2023-08-21T03:31:01.823Z,88.4
2023-08-21T03:32:02.205Z,88.4
2023-08-21T03:33:01.726Z,88.4
2023-08-21T03:34:02.136Z,88.4
2023-08-21T03:35:01.598Z,88.3
2023-08-21T03:36:02.119Z,88.3
2023-08-21T03:37:03.184Z,88.5
2023-08-21T03:38:01.981Z,88.5
2023-08-21T03:39:01.443Z,88.5
2023-08-21T03:40:01.875Z,88.3
2023-08-21T03:41:01.418Z,88.4
2023-08-21T03:42:04.202Z,88.4
2023-08-21T03:43:01.808Z,88.4
2023-08-21T03:44:01.250Z,88.3
2023-08-21T03:45:01.716Z,88.4
2023-08-21T03:46:03.949Z,88.4
2023-08-21T03:47:01.659Z,88.4
2023-08-21T03:48:02.149Z,88.4
2023-08-21T03:49:03.262Z,88.4
2023-08-21T03:50:03.684Z,88.4
2023-08-21T03:51:01.508Z,88.4
2023-08-21T03:52:01.944Z,88.3
2023-08-21T03:53:01.477Z,88.3
2023-08-21T03:54:01.857Z,88.6
2023-08-21T03:55:01.316Z,88.7
2023-08-21T03:56:01.902Z,88.7
2023-08-21T03:57:02.244Z,88.8
2023-08-21T03:58:03.308Z,88.8
2023-08-21T03:59:03.776Z,88.8
2023-08-21T04:00:03.279Z,88.8
2023-08-21T04:01:02.130Z,89
2023-08-21T04:02:03.217Z,89
2023-08-21T04:03:02.007Z,89
2023-08-21T04:04:01.508Z,89
2023-08-21T04:05:01.917Z,89
2023-08-21T04:06:01.389Z,88.9
2023-08-21T04:07:01.841Z,88.9
2023-08-21T04:08:01.344Z,88.8
2023-08-21T04:09:01.759Z,88.8
2023-08-21T04:10:02.222Z,88.7
2023-08-21T04:11:01.725Z,88.7
2023-08-21T04:12:02.171Z,88.7
2023-08-21T04:13:03.916Z,88.7
2023-08-21T04:14:02.145Z,88.7
2023-08-21T04:15:03.155Z,88.7
2023-08-21T04:16:02.039Z,88.7
2023-08-21T04:17:01.421Z,88.7
2023-08-21T04:18:03.653Z,88.7
2023-08-21T04:19:01.385Z,88.8
2023-08-21T04:20:03.500Z,88.8
2023-08-21T04:21:02.922Z,88.8
2023-08-21T04:22:01.730Z,88.9
2023-08-21T04:23:02.197Z,88.9
2023-08-21T04:24:01.637Z,88.8
2023-08-21T04:25:02.232Z,88.8
2023-08-21T04:26:03.283Z,88.9
2023-08-21T04:27:01.999Z,89
2023-08-21T04:28:01.477Z,89
2023-08-21T04:29:03.726Z,89.1
2023-08-21T04:30:01.397Z,89.1
2023-08-21T04:31:01.844Z,89.1
2023-08-21T04:32:01.419Z,89.1
2023-08-21T04:33:01.821Z,89.1
2023-08-21T04:34:01.263Z,89.1
2023-08-21T04:35:01.712Z,89.1
2023-08-21T04:36:02.185Z,89.1
2023-08-21T04:37:01.663Z,89
2023-08-21T04:38:03.796Z,89
2023-08-21T04:39:01.577Z,89
2023-08-21T04:40:02.072Z,89
2023-08-21T04:41:01.515Z,89
2023-08-21T04:42:02.034Z,88.9
2023-08-21T04:43:01.421Z,89
2023-08-21T04:44:01.902Z,89
2023-08-21T04:45:01.362Z,89
2023-08-21T04:46:01.917Z,89
2023-08-21T04:47:01.285Z,89.1
2023-08-21T04:48:01.789Z,89
2023-08-21T04:49:03.821Z,89.1
2023-08-21T04:50:03.364Z,89.1
2023-08-21T04:51:03.808Z,89.1
2023-08-21T04:52:03.249Z,89.1
2023-08-21T04:53:02.054Z,89.1
2023-08-21T04:54:01.512Z,89.1
2023-08-21T04:55:03.630Z,89.1
2023-08-21T04:56:03.102Z,89.2
2023-08-21T04:57:01.934Z,89.3
2023-08-21T04:58:03.043Z,89.3
2023-08-21T04:59:01.856Z,89.2
2023-08-21T05:00:02.995Z,89.2
2023-08-21T05:01:01.777Z,89.2
2023-08-21T05:02:03.972Z,89.2
2023-08-21T05:03:01.746Z,89
2023-08-21T05:04:02.235Z,89
2023-08-21T05:05:01.650Z,88.9
2023-08-21T05:06:02.170Z,88.8
2023-08-21T05:07:03.320Z,89
2023-08-21T05:08:02.127Z,88.8
2023-08-21T05:09:01.648Z,88.8
2023-08-21T05:10:03.762Z,89
2023-08-21T05:11:01.605Z,89.1
2023-08-21T05:12:02.130Z,89.2
2023-08-21T05:13:03.211Z,89.2
2023-08-21T05:14:03.127Z,89.3
2023-08-21T05:15:01.528Z,89.3
2023-08-21T05:16:02.085Z,89.4
2023-08-21T05:17:03.209Z,89.4
2023-08-21T05:18:02.062Z,89.4
2023-08-21T05:19:03.168Z,89.3
2023-08-21T05:20:02.008Z,89.2
2023-08-21T05:21:01.496Z,89.1
2023-08-21T05:22:03.577Z,89.1
2023-08-21T05:23:03.078Z,89.1
2023-08-21T05:24:01.937Z,89.1
2023-08-21T05:25:01.433Z,89.2
2023-08-21T05:26:03.588Z,89.3
2023-08-21T05:27:01.684Z,89.4
2023-08-21T05:28:01.913Z,89.6
2023-08-21T05:29:01.342Z,89.7
2023-08-21T05:30:01.852Z,89.7
2023-08-21T05:31:01.418Z,89.7
2023-08-21T05:32:01.821Z,89.9
2023-08-21T05:33:01.340Z,89.9
2023-08-21T05:34:01.807Z,89.9
2023-08-21T05:35:01.296Z,89.9
2023-08-21T05:36:01.841Z,89.9
2023-08-21T05:37:01.314Z,90
2023-08-21T05:38:01.826Z,90.4
2023-08-21T05:39:01.302Z,90.5
2023-08-21T05:40:03.346Z,90.6
2023-08-21T05:41:01.290Z,90.6
2023-08-21T05:42:01.708Z,90.7
2023-08-21T05:43:02.268Z,90.7
2023-08-21T05:44:01.640Z,90.7
2023-08-21T05:45:02.157Z,90.7
2023-08-21T05:46:01.644Z,90.7
2023-08-21T05:47:03.797Z,90.6
2023-08-21T05:48:01.541Z,90.6
2023-08-21T05:49:03.655Z,90.6
2023-08-21T05:50:01.465Z,90.5
2023-08-21T05:51:01.961Z,90.5
2023-08-21T05:52:01.380Z,90.6
2023-08-21T05:53:01.900Z,90.5
2023-08-21T05:54:01.320Z,90.5
2023-08-21T05:55:03.475Z,90.5
2023-08-21T05:56:01.245Z,90.5
2023-08-21T05:57:03.363Z,90.4
2023-08-21T05:58:02.186Z,90.4
2023-08-21T05:59:03.269Z,90.3
2023-08-21T06:00:02.107Z,90.3
2023-08-21T06:01:01.553Z,90.2
2023-08-21T06:02:01.959Z,90.1
2023-08-21T06:03:01.497Z,90
2023-08-21T06:04:02.025Z,89.9
2023-08-21T06:05:01.396Z,89.8
2023-08-21T06:06:01.799Z,89.7
2023-08-21T06:07:01.275Z,89.6
2023-08-21T06:08:01.714Z,89.4
2023-08-21T06:09:02.202Z,89.2
2023-08-21T06:10:03.298Z,89.1
2023-08-21T06:11:02.107Z,89
2023-08-21T06:12:01.519Z,89
2023-08-21T06:13:02.112Z,89
2023-08-21T06:14:03.173Z,88.8
2023-08-21T06:15:01.955Z,88.7
2023-08-21T06:16:01.419Z,88.7
2023-08-21T06:17:03.563Z,88.6
2023-08-21T06:18:01.382Z,88.4
2023-08-21T06:19:03.426Z,88.3
2023-08-21T06:20:02.228Z,88.2
2023-08-21T06:21:03.363Z,88.2
2023-08-21T06:22:03.788Z,88
2023-08-21T06:23:03.282Z,87.9
2023-08-21T06:24:02.042Z,87.8
2023-08-21T06:25:03.175Z,87.7
2023-08-21T06:26:03.601Z,87.6
2023-08-21T06:27:01.454Z,87.6
2023-08-21T06:28:01.875Z,87.5
2023-08-21T06:29:01.382Z,87.5
2023-08-21T06:30:01.843Z,87.4
2023-08-21T06:31:02.994Z,87.3
2023-08-21T06:32:01.728Z,87.2
2023-08-21T06:33:02.252Z,87.1
2023-08-21T06:34:01.609Z,86.9
2023-08-21T06:35:02.127Z,87.1
2023-08-21T06:36:01.569Z,86.7
2023-08-21T06:37:03.683Z,86.2
2023-08-21T06:38:03.047Z,86.2
2023-08-21T06:39:01.910Z,86.2
2023-08-21T06:40:01.384Z,86.2
2023-08-21T06:41:04.863Z,86.5
2023-08-21T06:42:01.264Z,86.3
2023-08-21T06:43:01.761Z,86.1
2023-08-21T06:44:02.234Z,86
2023-08-21T06:45:01.763Z,86.1
2023-08-21T06:46:02.178Z,85.8
2023-08-21T06:47:01.659Z,85.7
2023-08-21T06:48:02.154Z,85.7
2023-08-21T06:49:03.176Z,85.2
2023-08-21T06:50:01.976Z,85.4
2023-08-21T06:51:01.459Z,85.6
2023-08-21T06:52:01.904Z,85.1
2023-08-21T06:53:03.073Z,84.8
2023-08-21T06:54:01.785Z,84.8
2023-08-21T06:55:02.930Z,84.8
2023-08-21T06:56:03.333Z,84.9
2023-08-21T06:57:03.850Z,85.4
2023-08-21T06:58:01.615Z,84.8
2023-08-21T06:59:03.727Z,84.5
2023-08-21T07:00:03.174Z,84.7
2023-08-21T07:01:01.982Z,84.3
2023-08-21T07:02:01.450Z,84.3
2023-08-21T07:03:03.592Z,84.5
2023-08-21T07:04:01.308Z,84.2
2023-08-21T07:05:03.457Z,83.9
2023-08-21T07:06:02.206Z,83.1
2023-08-21T07:07:01.713Z,83.6
2023-08-21T07:08:02.191Z,83.7
2023-08-21T07:09:03.334Z,83.8
2023-08-21T07:10:03.748Z,83.7
2023-08-21T07:11:03.182Z,83.6
2023-08-21T07:12:03.629Z,83.2
2023-08-21T07:13:03.075Z,83.3
2023-08-21T07:14:01.885Z,83.4
2023-08-21T07:15:01.379Z,82.3
2023-08-21T07:16:03.577Z,82.8
2023-08-21T07:17:02.935Z,83.1
2023-08-21T07:18:03.382Z,83
2023-08-21T07:19:03.811Z,82.1
2023-08-21T07:20:01.606Z,82.2
2023-08-21T07:21:02.101Z,82.6
2023-08-21T07:22:01.585Z,82.7
2023-08-21T07:23:02.036Z,82.7
2023-08-21T07:24:04.207Z,82.7
2023-08-21T07:25:01.981Z,82.8
2023-08-21T07:26:01.413Z,82.8
2023-08-21T07:27:01.952Z,82
2023-08-21T07:28:01.417Z,81.1
2023-08-21T07:29:03.514Z,80.9
2023-08-21T07:30:01.276Z,80.8
2023-08-21T07:31:01.802Z,81
2023-08-21T07:33:01.846Z,80.6
2023-08-21T07:34:02.193Z,80.5
2023-08-21T07:35:03.336Z,80.2
2023-08-21T07:36:03.762Z,80.3
2023-08-21T07:37:03.233Z,81.3
2023-08-21T07:38:02.039Z,81.6
2023-08-21T07:39:01.523Z,81.6
2023-08-21T07:40:02.011Z,81.6
2023-08-21T07:41:03.164Z,80.2
2023-08-21T07:42:01.949Z,80
2023-08-21T07:43:03.714Z,78.9
2023-08-21T07:44:01.350Z,79.2
2023-08-21T07:45:03.569Z,79
2023-08-21T07:46:02.870Z,79.2
2023-08-21T07:47:03.408Z,79.2
2023-08-21T07:48:14.310Z,78.8
2023-08-21T07:49:01.697Z,79
2023-08-21T07:50:02.133Z,78.8
2023-08-21T07:51:03.317Z,79.2
2023-08-21T07:52:02.137Z,78.2
2023-08-21T07:53:01.646Z,77.8
2023-08-21T07:54:02.063Z,78
2023-08-21T07:55:03.179Z,78.7
2023-08-21T07:56:01.959Z,77.3
2023-08-21T07:57:01.471Z,78
2023-08-21T07:58:01.933Z,77.4
2023-08-21T07:59:01.394Z,77.2
2023-08-21T08:00:01.878Z,77.3
2023-08-21T08:01:02.991Z,76.9
2023-08-21T08:02:01.904Z,77.3
2023-08-21T08:03:01.313Z,77.2
2023-08-21T08:04:01.855Z,78.4
2023-08-21T08:05:02.243Z,77.4
2023-08-21T08:06:01.688Z,77
2023-08-21T08:07:02.168Z,76.6
2023-08-21T08:08:01.615Z,77.7
2023-08-21T08:09:02.151Z,76.6
2023-08-21T08:10:01.594Z,76.8
2023-08-21T08:11:03.705Z,76.4
2023-08-21T08:12:01.498Z,75.5
2023-08-21T08:13:01.975Z,75.8
2023-08-21T08:14:01.442Z,76
2023-08-21T08:15:01.918Z,76
2023-08-21T08:16:01.442Z,75.7
2023-08-21T08:17:03.506Z,75.4
2023-08-21T08:18:01.393Z,76.3
2023-08-21T08:19:03.477Z,75.5
2023-08-21T08:21:01.733Z,75.5
2023-08-21T08:22:02.261Z,75.6
2023-08-21T08:23:04.000Z,76.1
2023-08-21T08:24:01.620Z,75.4
2023-08-21T08:25:03.759Z,75
2023-08-21T08:26:01.539Z,74.9
2023-08-21T08:27:03.677Z,75.5
2023-08-21T08:28:01.482Z,75.1
2023-08-21T08:29:01.955Z,74.9
2023-08-21T08:30:03.105Z,75.8
2023-08-21T08:31:03.577Z,75.8
2023-08-21T08:32:01.437Z,75.4
2023-08-21T08:33:01.956Z,74.3
2023-08-21T08:34:01.269Z,74.2
2023-08-21T08:35:01.761Z,74.9
2023-08-21T08:36:03.889Z,74.1
2023-08-21T08:37:01.661Z,73.8
2023-08-21T08:38:03.762Z,73.4
2023-08-21T08:39:01.623Z,73.6
2023-08-21T08:40:03.671Z,74.6
2023-08-21T08:41:01.535Z,74.6
2023-08-21T08:42:03.683Z,74.7
2023-08-21T08:43:01.462Z,74.6
2023-08-21T08:44:01.929Z,74.8
2023-08-21T08:45:01.405Z,74.6
2023-08-21T08:46:01.862Z,74.7
2023-08-21T08:47:02.980Z,73.2
2023-08-21T08:48:01.819Z,72.5
2023-08-21T08:49:02.250Z,73.2
2023-08-21T08:50:01.723Z,72.7
2023-08-21T08:51:02.183Z,73.5
2023-08-21T08:52:01.660Z,73.3
2023-08-21T08:53:15.210Z,73.1
2023-08-21T08:54:01.633Z,74
2023-08-21T08:55:03.716Z,73.9
2023-08-21T08:56:01.536Z,73.9
2023-08-21T08:57:03.634Z,73
2023-08-21T08:58:01.479Z,73.9
2023-08-21T08:59:01.919Z,72.6
2023-08-21T09:00:03.034Z,71.9
2023-08-21T09:01:03.531Z,71.9
2023-08-21T09:02:01.294Z,72.6
2023-08-21T09:03:01.815Z,72.7
2023-08-21T09:04:02.299Z,74
2023-08-21T09:05:01.667Z,72.5
2023-08-21T09:06:02.140Z,72.5
2023-08-21T09:07:01.519Z,71.2
2023-08-21T09:08:02.044Z,71.6
2023-08-21T09:09:01.532Z,72.5
2023-08-21T09:10:02.076Z,72.6
2023-08-21T09:11:01.440Z,73.2
2023-08-21T09:12:01.923Z,72.3
2023-08-21T09:13:01.372Z,72
2023-08-21T09:14:01.849Z,72.2
2023-08-21T09:15:01.317Z,72.8
2023-08-21T09:16:03.465Z,72.6
2023-08-21T09:17:02.253Z,73.2
2023-08-21T09:18:01.716Z,73
2023-08-21T09:19:03.762Z,71.4
2023-08-21T09:20:01.597Z,71.4
2023-08-21T09:21:02.065Z,71.8
2023-08-21T09:22:01.567Z,71.2
2023-08-21T09:23:02.000Z,71.4
2023-08-21T09:24:01.454Z,72
2023-08-21T09:25:03.549Z,71.9
2023-08-21T09:26:01.371Z,71.4
2023-08-21T09:27:01.862Z,71.6
2023-08-21T09:28:01.264Z,71.1
2023-08-21T09:29:01.747Z,71.7
2023-08-21T09:30:02.261Z,71.4
2023-08-21T09:31:03.319Z,70.6
2023-08-21T09:32:03.792Z,71.6
2023-08-21T09:33:01.745Z,69.9
2023-08-21T09:34:03.630Z,70.3
2023-08-21T09:35:03.137Z,72.4
2023-08-21T09:36:01.933Z,70.6
2023-08-21T09:37:01.390Z,70.7
2023-08-21T09:38:01.888Z,71.5
2023-08-21T09:39:02.950Z,70.6
2023-08-21T09:40:01.774Z,70.5
2023-08-21T09:41:02.257Z,70
2023-08-21T09:42:01.703Z,69.8
2023-08-21T09:43:04.468Z,70.2
2023-08-21T09:44:02.052Z,70
2023-08-21T09:45:04.144Z,69.9
2023-08-21T09:46:03.603Z,69.8
2023-08-21T09:47:01.452Z,70.7
2023-08-21T09:48:02.000Z,70.8
2023-08-21T09:49:02.941Z,70.5
2023-08-21T09:50:01.742Z,70.6
2023-08-21T09:51:03.873Z,70.8
2023-08-21T09:52:01.654Z,69.8
2023-08-21T09:53:02.134Z,69.4
2023-08-21T09:54:03.207Z,70.2
2023-08-21T09:55:03.701Z,70.7
2023-08-21T09:56:01.493Z,70.2
2023-08-21T09:57:03.609Z,70.2
2023-08-21T09:58:01.413Z,70.5
2023-08-21T09:59:01.865Z,71
2023-08-21T10:00:01.317Z,70.6
2023-08-21T10:01:03.463Z,71.9
2023-08-21T10:02:02.870Z,70.1
2023-08-21T10:03:01.693Z,69.5
2023-08-21T10:04:02.238Z,70.6
2023-08-21T10:05:03.210Z,70.3
2023-08-21T10:06:03.748Z,70.6
2023-08-21T10:07:01.543Z,70.5
2023-08-21T10:08:02.013Z,71.7
2023-08-21T10:09:03.067Z,70.9
2023-08-21T10:10:03.499Z,70.7
2023-08-21T10:11:04.481Z,70
2023-08-21T10:12:01.881Z,70.3
2023-08-21T10:13:01.315Z,69.5
2023-08-21T10:14:01.758Z,70.6
2023-08-21T10:15:02.217Z,70
2023-08-21T10:16:01.673Z,69.8
2023-08-21T10:17:03.785Z,70.1
2023-08-21T10:18:01.670Z,69.9
2023-08-21T10:19:03.720Z,69.8
2023-08-21T10:20:01.511Z,69.3
2023-08-21T10:21:01.999Z,70.7
2023-08-21T10:22:01.470Z,70.5
2023-08-21T10:23:02.744Z,70.1
2023-08-21T10:24:01.453Z,70.3
2023-08-21T10:25:03.519Z,68.8
2023-08-21T10:26:02.008Z,70.2
2023-08-21T10:27:01.803Z,69.5
2023-08-21T10:28:02.237Z,69.7
2023-08-21T10:29:01.700Z,70.5
2023-08-21T10:30:02.114Z,69.3
2023-08-21T10:31:01.711Z,68.8
2023-08-21T10:32:02.066Z,69.4
2023-08-21T10:33:01.595Z,69.9
2023-08-21T10:34:01.988Z,69.5
2023-08-21T10:35:03.089Z,69.1
2023-08-21T10:36:01.917Z,68.8
2023-08-21T10:37:03.018Z,68.4
2023-08-21T10:38:01.822Z,69.4
2023-08-21T10:39:02.873Z,70.4
2023-08-21T10:40:01.729Z,71
2023-08-21T10:41:02.193Z,69.7
2023-08-21T10:42:01.672Z,68.7
2023-08-21T10:43:02.140Z,68.6
2023-08-21T10:44:01.536Z,69
2023-08-21T10:45:02.097Z,68.7
2023-08-21T10:46:03.214Z,69.2
2023-08-21T10:47:01.958Z,69.7
2023-08-21T10:48:01.495Z,70.1
2023-08-21T10:49:01.901Z,70
2023-08-21T10:50:02.904Z,69.8
2023-08-21T10:51:01.781Z,68.5
2023-08-21T10:52:03.895Z,69.6
2023-08-21T10:53:01.680Z,69.9
2023-08-21T10:54:03.810Z,68.7
2023-08-21T10:55:03.241Z,69.7
2023-08-21T10:56:03.777Z,70.1
2023-08-21T10:57:01.572Z,68.6
2023-08-21T10:58:02.018Z,68.3
2023-08-21T10:59:03.122Z,68.9
2023-08-21T11:00:02.004Z,68
2023-08-21T11:01:01.456Z,68.8
2023-08-21T11:02:03.534Z,69.3
2023-08-21T11:03:01.405Z,68.3
2023-08-21T11:04:03.904Z,67.2
2023-08-21T11:05:02.317Z,68
2023-08-21T11:06:01.712Z,68.8
2023-08-21T11:07:02.147Z,68.6
2023-08-21T11:08:01.575Z,69.2
2023-08-21T11:09:03.743Z,67.8
2023-08-21T11:10:03.118Z,68.6
2023-08-21T11:11:01.965Z,66.6
2023-08-21T11:12:01.386Z,66.6
2023-08-21T11:13:01.901Z,66.9
2023-08-21T11:14:01.272Z,66.9
2023-08-21T11:15:03.414Z,68.2
2023-08-21T11:16:04.052Z,68.2
2023-08-21T11:17:03.370Z,68.5
2023-08-21T11:18:03.951Z,68.5
2023-08-21T11:19:01.565Z,68.3
2023-08-21T11:20:02.035Z,66.7
2023-08-21T11:21:01.502Z,67.2
2023-08-21T11:22:01.968Z,66.4
2023-08-21T11:23:01.451Z,67
2023-08-21T11:24:01.889Z,66.9
2023-08-21T11:25:01.395Z,68
2023-08-21T11:26:15.012Z,67.5
2023-08-21T11:27:01.283Z,69.1
2023-08-21T11:28:01.740Z,69.9
2023-08-21T11:29:02.239Z,69.4
2023-08-21T11:30:03.285Z,67.2
2023-08-21T11:31:03.774Z,67.9
2023-08-21T11:32:03.259Z,68.6
2023-08-21T11:33:02.049Z,67.3
2023-08-21T11:34:10.971Z,68.3
2023-08-21T11:35:01.966Z,68.6
2023-08-21T11:36:01.388Z,67.3
2023-08-21T11:37:01.853Z,67.9
2023-08-21T11:38:01.295Z,67.5
2023-08-21T11:39:03.425Z,67.1
2023-08-21T11:40:02.220Z,67.8
2023-08-21T11:41:03.313Z,66.2
2023-08-21T11:42:02.117Z,66.1
2023-08-21T11:43:01.604Z,67.2
2023-08-21T11:44:03.710Z,67.6
2023-08-21T11:45:01.494Z,66.3
2023-08-21T11:46:01.972Z,66.5
2023-08-21T11:47:01.432Z,66.3
2023-08-21T11:48:01.885Z,66.6
2023-08-21T11:49:01.346Z,66.6
2023-08-21T11:50:03.427Z,66.4
2023-08-21T11:51:02.945Z,67.1
2023-08-21T11:52:03.281Z,66.6
2023-08-21T11:53:03.850Z,65.4
2023-08-21T11:54:01.610Z,65.1
2023-08-21T11:55:02.148Z,65.4
2023-08-21T11:56:01.574Z,65.9
2023-08-21T11:57:03.713Z,64.6
2023-08-21T11:58:01.492Z,64.7
2023-08-21T11:59:01.967Z,66.6
2023-08-21T12:00:03.048Z,64.8
2023-08-21T12:01:01.918Z,65.6
2023-08-21T12:02:02.988Z,66.9
2023-08-21T12:03:01.887Z,66.4
2023-08-21T12:05:03.402Z,66.3
2023-08-21T12:06:02.219Z,65.8
2023-08-21T12:07:01.699Z,66.1
2023-08-21T12:08:02.150Z,66.3
2023-08-21T12:09:01.606Z,65.5
2023-08-21T12:10:02.084Z,66.3
2023-08-21T12:11:03.205Z,66.2
2023-08-21T12:12:03.664Z,65.1
2023-08-21T12:13:01.505Z,64.7
2023-08-21T12:14:03.518Z,64.1
2023-08-21T12:15:03.044Z,65.2
2023-08-21T12:16:01.930Z,64.5
2023-08-21T12:17:02.927Z,64.5
2023-08-21T12:18:03.481Z,65
2023-08-21T12:19:03.860Z,66.4
2023-08-21T12:20:02.692Z,63.9
2023-08-21T12:21:02.201Z,65.5
2023-08-21T12:22:01.625Z,64.8
2023-08-21T12:23:02.126Z,64.2
2023-08-21T12:24:01.615Z,64.3
2023-08-21T12:25:03.673Z,64.8
2023-08-21T12:26:03.129Z,65
2023-08-21T12:27:01.943Z,65
2023-08-21T12:28:09.548Z,65.2
2023-08-21T12:29:01.949Z,65
2023-08-21T12:30:01.389Z,64.5
2023-08-21T12:31:03.479Z,64.4
2023-08-21T12:32:01.288Z,64.6
2023-08-21T12:33:09.359Z,65.3
2023-08-21T12:34:02.228Z,65.3
2023-08-21T12:35:03.283Z,65.5
2023-08-21T12:36:02.075Z,65.2
2023-08-21T12:37:01.572Z,64.9
2023-08-21T12:38:03.669Z,63.8
2023-08-21T12:39:01.512Z,63.1
2023-08-21T12:40:01.919Z,64.4
2023-08-21T12:41:03.029Z,65.2
2023-08-21T12:42:01.839Z,65.3
2023-08-21T12:43:02.930Z,65.9
2023-08-21T12:44:01.777Z,65.1
2023-08-21T12:45:02.218Z,64.7
2023-08-21T12:46:01.908Z,63.4
2023-08-21T12:47:02.142Z,63.4
2023-08-21T12:48:01.713Z,63.2
2023-08-21T12:49:03.702Z,63.8
2023-08-21T12:50:03.093Z,64.2
2023-08-21T12:51:01.942Z,63.7
2023-08-21T12:52:03.045Z,62.7
2023-08-21T12:53:03.516Z,63.5
2023-08-21T12:54:02.936Z,63.4
2023-08-21T12:55:01.753Z,62.6
2023-08-21T12:56:02.223Z,62.1
2023-08-21T12:57:03.379Z,62.9
2023-08-21T12:58:02.128Z,62.1
2023-08-21T12:59:01.744Z,62.3
2023-08-21T13:00:02.081Z,62.5
2023-08-21T13:01:03.225Z,62.3
2023-08-21T13:02:03.825Z,62.9
2023-08-21T13:03:03.258Z,62.5
2023-08-21T13:04:01.902Z,62.1
2023-08-21T13:05:01.339Z,62.5
2023-08-21T13:06:01.782Z,62.7
2023-08-21T13:07:02.958Z,63.1
2023-08-21T13:08:01.702Z,63
2023-08-21T13:09:03.851Z,62.8
2023-08-21T13:10:01.616Z,61.9
2023-08-21T13:11:02.104Z,62.6
2023-08-21T13:12:01.541Z,62.2
2023-08-21T13:13:03.676Z,62.8
2023-08-21T13:14:01.424Z,63.7
2023-08-21T13:15:03.591Z,63.3
2023-08-21T13:16:03.061Z,62
2023-08-21T13:17:03.493Z,62.5
2023-08-21T13:18:01.330Z,61.7
2023-08-21T13:19:01.773Z,62.3
2023-08-21T13:20:03.884Z,61.9
2023-08-21T13:21:01.687Z,63.1
2023-08-21T13:22:02.138Z,63
2023-08-21T13:23:03.266Z,61.8
2023-08-21T13:24:03.838Z,62.7
2023-08-21T13:25:01.526Z,60.8
2023-08-21T13:26:02.058Z,61.8
2023-08-21T13:27:03.138Z,63.8
2023-08-21T13:28:01.934Z,63.7
2023-08-21T13:29:01.456Z,61.7
2023-08-21T13:30:01.878Z,61.3
2023-08-21T13:31:01.377Z,61